createdAt,value
2017-12-22T00:00:03.000Z,21.1
2017-12-22T00:10:03.000Z,21.1
2017-12-22T00:20:03.000Z,21
2017-12-22T00:30:03.000Z,20.9
2017-12-22T00:40:03.000Z,20.9
2017-12-22T00:50:03.000Z,20.8
2017-12-22T01:00:06.000Z,20.7
2017-12-22T01:10:03.000Z,20.7
2017-12-22T01:20:03.000Z,20.7
2017-12-22T01:30:03.000Z,20.6
2017-12-22T01:40:03.000Z,20.5
2017-12-22T01:50:03.000Z,20.3
2017-12-22T02:00:03.000Z,20.3
2017-12-22T02:10:03.000Z,20.3
2017-12-22T02:20:03.000Z,20.3
2017-12-22T02:30:03.000Z,20.3
2017-12-22T02:40:03.000Z,20.3
2017-12-22T02:50:03.000Z,20.3
2017-12-22T03:00:03.000Z,20.3
2017-12-22T03:10:03.000Z,20.3
2017-12-22T03:20:03.000Z,20.3
2017-12-22T03:30:03.000Z,20.3
2017-12-22T03:40:06.000Z,20.3
2017-12-22T03:50:03.000Z,20.3
2017-12-22T04:00:03.000Z,20.3
2017-12-22T04:10:03.000Z,20.3
2017-12-22T04:20:03.000Z,20.3
2017-12-22T04:30:03.000Z,20.3
2017-12-22T04:40:03.000Z,20.3
2017-12-22T04:50:03.000Z,20.3
2017-12-22T05:00:03.000Z,20.3
2017-12-22T05:10:03.000Z,20.3
2017-12-22T05:20:03.000Z,20.3
2017-12-22T05:30:03.000Z,20.3
2017-12-22T05:40:03.000Z,20.3
2017-12-22T05:50:03.000Z,20.3
2017-12-22T06:00:03.000Z,20.3
2017-12-22T06:10:03.000Z,20.3
2017-12-22T06:20:06.000Z,20.3
2017-12-22T06:30:03.000Z,20.3
2017-12-22T06:40:03.000Z,20.3
2017-12-22T06:50:03.000Z,20.3
2017-12-22T07:00:03.000Z,20.3
2017-12-22T07:10:03.000Z,20.3
2017-12-22T07:20:03.000Z,20.3
2017-12-22T07:30:03.000Z,20.3
2017-12-22T07:40:03.000Z,20.3
2017-12-22T07:50:03.000Z,20.3
2017-12-22T08:00:03.000Z,20.3
2017-12-22T08:10:03.000Z,20.3
2017-12-22T08:20:03.000Z,20.3
2017-12-22T08:30:03.000Z,20.3
2017-12-22T08:40:03.000Z,20.3
2017-12-22T08:50:03.000Z,20.3
2017-12-22T09:00:06.000Z,20.3
2017-12-22T09:10:03.000Z,20.3
2017-12-22T09:20:03.000Z,20.3
2017-12-22T09:30:03.000Z,20.3
2017-12-22T09:40:03.000Z,20.7
2017-12-22T09:50:03.000Z,21.1
2017-12-22T10:00:03.000Z,21.1
2017-12-22T10:10:03.000Z,21.1
2017-12-22T10:20:03.000Z,20.6
2017-12-22T10:30:03.000Z,20.7
2017-12-22T10:40:03.000Z,20.7
2017-12-22T10:50:03.000Z,20.8
2017-12-22T11:00:03.000Z,20.8
2017-12-22T11:10:03.000Z,20.9
2017-12-22T11:20:03.000Z,20.9
2017-12-22T11:30:03.000Z,21
2017-12-22T11:40:06.000Z,21.1
2017-12-22T11:50:03.000Z,21
2017-12-22T12:00:03.000Z,21
2017-12-22T12:10:03.000Z,21.1
2017-12-22T12:20:03.000Z,21.1
2017-12-22T12:30:03.000Z,21.1
2017-12-22T12:40:03.000Z,21.1
2017-12-22T12:50:03.000Z,21
2017-12-22T13:00:03.000Z,21.1
2017-12-22T13:10:03.000Z,21.1
2017-12-22T13:20:03.000Z,21.1
2017-12-22T13:30:03.000Z,21.1
2017-12-22T13:40:03.000Z,21.1
2017-12-22T13:50:03.000Z,21.1
2017-12-22T14:00:03.000Z,21.1
2017-12-22T14:10:03.000Z,21.1
2017-12-22T14:20:06.000Z,21.1
2017-12-22T14:30:03.000Z,21.1
2017-12-22T14:40:03.000Z,21.2
2017-12-22T14:50:03.000Z,21.1
2017-12-22T15:00:03.000Z,21.1
2017-12-22T15:10:03.000Z,21.1
2017-12-22T15:20:03.000Z,21.1
2017-12-22T15:30:03.000Z,21.1
2017-12-22T15:40:03.000Z,21.1
2017-12-22T15:50:03.000Z,21.1
2017-12-22T16:00:03.000Z,21.1
2017-12-22T16:10:03.000Z,21.1
2017-12-22T16:20:03.000Z,21.1
2017-12-22T16:30:03.000Z,21.1
2017-12-22T16:40:03.000Z,21.1
2017-12-22T16:50:03.000Z,21.1
2017-12-22T17:00:06.000Z,21
2017-12-22T17:10:03.000Z,21.1
2017-12-22T17:20:03.000Z,21.1
2017-12-22T17:30:03.000Z,21.1
2017-12-22T17:40:03.000Z,21.1
2017-12-22T17:50:03.000Z,21
2017-12-22T18:00:03.000Z,21.1
2017-12-22T18:10:03.000Z,21.1
2017-12-22T18:20:03.000Z,21.1
2017-12-22T18:30:03.000Z,21.1
2017-12-22T18:40:03.000Z,21
2017-12-22T18:50:03.000Z,21.1
2017-12-22T19:00:03.000Z,21.1
2017-12-22T19:10:03.000Z,21.1
2017-12-22T19:20:03.000Z,21.1
2017-12-22T19:30:03.000Z,21.1
2017-12-22T19:40:06.000Z,21.1
2017-12-22T19:50:03.000Z,21.1
2017-12-22T20:00:03.000Z,21.1
2017-12-22T20:10:03.000Z,21.1
2017-12-22T20:20:03.000Z,21.1
2017-12-22T20:30:03.000Z,21.1
2017-12-22T20:40:03.000Z,21.1
2017-12-22T20:50:03.000Z,21.2
2017-12-22T21:00:03.000Z,21.1
2017-12-22T21:10:03.000Z,21.1
2017-12-22T21:20:03.000Z,21.1
2017-12-22T21:30:03.000Z,21.1
2017-12-22T21:40:03.000Z,21.1
2017-12-22T21:50:03.000Z,21.1
2017-12-22T22:00:03.000Z,21.1
2017-12-22T22:10:03.000Z,21
2017-12-22T22:20:06.000Z,20.9
2017-12-22T22:30:03.000Z,20.9
2017-12-22T22:40:03.000Z,20.9
2017-12-22T22:50:03.000Z,20.8
2017-12-22T23:00:03.000Z,20.8
2017-12-22T23:10:03.000Z,20.8
2017-12-22T23:20:03.000Z,20.9
2017-12-22T23:30:03.000Z,20.8
2017-12-22T23:40:03.000Z,20.7
2017-12-22T23:50:03.000Z,20.7
